createdAt,value
2023-11-01T00:04:32.803Z,50.5
2023-11-01T00:15:32.767Z,50.5
2023-11-01T00:21:03.219Z,50
2023-11-01T00:26:33.868Z,50
2023-11-01T00:32:04.313Z,50.5
2023-11-01T00:37:33.792Z,50.5
2023-11-01T00:43:04.312Z,50
2023-11-01T00:48:34.753Z,50
2023-11-01T00:54:04.285Z,50
2023-11-01T00:59:34.731Z,50
2023-11-01T01:05:05.218Z,50
2023-11-01T01:10:35.821Z,50
2023-11-01T01:16:06.325Z,50
2023-11-01T01:21:36.916Z,50
2023-11-01T01:27:07.369Z,50
2023-11-01T01:32:37.985Z,50
2023-11-01T01:38:08.484Z,50
2023-11-01T01:43:39.014Z,50.5
2023-11-01T01:49:09.770Z,50.5
2023-11-01T01:54:40.062Z,50.5
2023-11-01T02:00:10.536Z,50.5
2023-11-01T02:11:11.610Z,51
2023-11-01T02:16:42.188Z,51
2023-11-01T02:22:11.681Z,51
2023-11-01T02:27:42.119Z,51
2023-11-01T02:33:12.677Z,51
2023-11-01T02:38:43.269Z,51
2023-11-01T02:44:13.732Z,51
2023-11-01T02:49:43.211Z,51
2023-11-01T02:55:13.724Z,51
2023-11-01T03:00:44.167Z,51
2023-11-01T03:06:13.645Z,51
2023-11-01T03:11:44.157Z,51
2023-11-01T03:18:28.151Z,51
2023-11-01T03:23:51.449Z,51
2023-11-01T03:29:21.975Z,51
2023-11-01T03:34:52.660Z,51
2023-11-01T03:40:23.128Z,51
2023-11-01T03:45:53.648Z,51
2023-11-01T03:51:24.232Z,51
2023-11-01T03:56:54.702Z,51
2023-11-01T04:02:25.243Z,51
2023-11-01T04:07:55.786Z,51
2023-11-01T04:13:26.248Z,51
2023-11-01T04:18:56.973Z,51
2023-11-01T04:24:27.460Z,51
2023-11-01T04:29:57.934Z,50.5
2023-11-01T04:35:28.568Z,50.5
2023-11-01T04:40:59.042Z,50.5
2023-11-01T04:46:29.535Z,50.5
2023-11-01T04:52:00.088Z,50.5
2023-11-01T04:57:30.555Z,50.5
2023-11-01T05:03:01.202Z,50.5
2023-11-01T05:08:31.726Z,50.5
2023-11-01T05:14:02.133Z,50.5
2023-11-01T05:19:32.615Z,50.5
2023-11-01T05:25:03.230Z,50.5
2023-11-01T05:30:33.736Z,50.5
2023-11-01T05:36:04.325Z,50.5
2023-11-01T05:41:34.813Z,50.5
2023-11-01T05:47:05.359Z,50.5
2023-11-01T05:52:34.850Z,50.5
2023-11-01T05:59:11.423Z,50.5
2023-11-01T06:04:42.018Z,50.5
2023-11-01T06:10:12.622Z,50.5
2023-11-01T06:15:43.082Z,50.5
2023-11-01T06:21:13.724Z,50.5
2023-11-01T06:26:44.490Z,50.5
2023-11-01T06:32:14.914Z,50.5
2023-11-01T06:37:45.668Z,51
2023-11-01T06:43:16.145Z,50.5
2023-11-01T06:48:46.705Z,50
2023-11-01T06:54:17.214Z,50
2023-11-01T06:59:46.866Z,49.5
2023-11-01T07:05:17.298Z,49.5
2023-11-01T07:10:47.769Z,49.5
2023-11-01T07:16:18.373Z,49.5
2023-11-01T07:21:49.091Z,49
2023-11-01T07:27:19.579Z,49
2023-11-01T07:32:50.113Z,49
2023-11-01T07:38:20.678Z,49
2023-11-01T07:54:52.283Z,48.5
2023-11-01T08:00:22.767Z,48.5
2023-11-01T08:05:53.360Z,48.5
2023-11-01T08:11:23.843Z,48.5
2023-11-01T08:16:54.481Z,48.5
2023-11-01T08:22:24.953Z,48.5
2023-11-01T08:27:55.417Z,48.5
2023-11-01T08:33:25.102Z,49
2023-11-01T08:38:55.499Z,48.5
2023-11-01T08:44:25.970Z,48.5
2023-11-01T08:49:56.552Z,48.5
2023-11-01T08:55:27.054Z,48.5
2023-11-01T09:00:59.184Z,48.5
2023-11-01T09:06:28.086Z,48.5
2023-11-01T09:11:58.593Z,48.5
2023-11-01T09:17:29.255Z,48.5
2023-11-01T09:22:59.646Z,48.5
2023-11-01T09:28:30.269Z,49
2023-11-01T09:34:00.979Z,49
2023-11-01T09:39:31.334Z,48.5
2023-11-01T09:45:01.985Z,48.5
2023-11-01T09:50:32.452Z,48.5
2023-11-01T09:56:03.031Z,48.5
2023-11-01T10:01:33.608Z,48.5
2023-11-01T10:07:04.086Z,48.5
2023-11-01T10:12:34.586Z,48.5
2023-11-01T10:18:05.260Z,48.5
2023-11-01T10:23:35.670Z,48.5
2023-11-01T10:29:06.226Z,48.5
2023-11-01T10:34:36.711Z,48
2023-11-01T10:40:07.187Z,48
2023-11-01T10:45:37.854Z,48
2023-11-01T10:51:08.357Z,48
2023-11-01T10:56:38.947Z,48
2023-11-01T11:02:09.408Z,48
2023-11-01T11:07:39.856Z,48
2023-11-01T11:13:10.508Z,48
2023-11-01T11:18:43.319Z,48
2023-11-01T11:24:11.539Z,48
2023-11-01T11:29:42.261Z,48
2023-11-01T11:35:12.728Z,48
2023-11-01T11:40:43.199Z,47.5
2023-11-01T11:46:13.940Z,48
2023-11-01T11:51:44.373Z,47.5
2023-11-01T11:57:14.966Z,47.5
2023-11-01T12:02:45.642Z,47.5
2023-11-01T12:08:16.130Z,47.5
2023-11-01T12:13:46.709Z,47.5
2023-11-01T12:19:17.166Z,47.5
2023-11-01T12:24:47.675Z,47.5
2023-11-01T12:30:18.260Z,47
2023-11-01T12:35:48.765Z,47
2023-11-01T12:41:19.193Z,47
2023-11-01T12:46:49.859Z,47
2023-11-01T12:52:19.417Z,47
2023-11-01T12:57:49.908Z,47
2023-11-01T13:03:20.756Z,47.5
2023-11-01T13:08:51.142Z,47.5
2023-11-01T13:14:21.665Z,47.5
2023-11-01T13:19:52.281Z,47.5
2023-11-01T13:25:22.740Z,48
2023-11-01T13:30:53.221Z,48
2023-11-01T13:36:22.696Z,48
2023-11-01T13:41:53.236Z,48
2023-11-01T13:47:26.065Z,48
2023-11-01T13:52:54.248Z,48
2023-11-01T13:58:24.865Z,48
2023-11-01T14:03:55.667Z,48
2023-11-01T14:09:25.943Z,48
2023-11-01T14:14:56.519Z,48
2023-11-01T14:20:26.994Z,48
2023-11-01T14:25:57.601Z,48
2023-11-01T14:31:27.094Z,48
2023-11-01T14:36:57.586Z,48
2023-11-01T14:42:28.051Z,48
2023-11-01T14:47:58.733Z,48
2023-11-01T14:53:29.121Z,48
2023-11-01T14:58:59.717Z,48
2023-11-01T15:04:30.424Z,48
2023-11-01T15:10:00.945Z,48
2023-11-01T15:15:31.401Z,48
2023-11-01T15:21:01.951Z,48
2023-11-01T15:26:32.486Z,48
2023-11-01T15:32:03.093Z,48
2023-11-01T15:37:33.620Z,48
2023-11-01T15:43:04.209Z,48
2023-11-01T15:48:34.715Z,48
2023-11-01T15:54:05.171Z,48
2023-11-01T15:59:35.820Z,48
2023-11-01T16:05:06.319Z,48
2023-11-01T16:10:35.850Z,48
2023-11-01T16:16:06.491Z,48
2023-11-01T16:21:36.888Z,48
2023-11-01T16:27:07.371Z,48
2023-11-01T16:32:37.917Z,48
2023-11-01T16:38:08.497Z,48
2023-11-01T16:43:38.912Z,48
2023-11-01T16:49:09.386Z,48
2023-11-01T16:54:39.995Z,48
2023-11-01T17:00:10.508Z,48
2023-11-01T17:05:41.092Z,48
2023-11-01T17:11:11.604Z,48
2023-11-01T17:16:42.090Z,48
2023-11-01T17:22:12.568Z,48
2023-11-01T17:27:43.164Z,48
2023-11-01T17:33:13.779Z,48
2023-11-01T17:38:44.272Z,48
2023-11-01T17:44:14.704Z,48
2023-11-01T17:49:45.212Z,48
2023-11-01T18:00:46.356Z,48
2023-11-01T18:11:47.409Z,48
2023-11-01T18:17:17.855Z,48
2023-11-01T18:22:47.329Z,48
2023-11-01T18:28:17.819Z,48
2023-11-01T18:33:48.313Z,48
2023-11-01T18:39:18.920Z,48
2023-11-01T18:44:49.466Z,48
2023-11-01T18:50:20.045Z,48
2023-11-01T19:01:21.021Z,48
2023-11-01T19:06:51.610Z,48
2023-11-01T19:12:22.070Z,48
2023-11-01T19:17:52.656Z,48
2023-11-01T19:23:23.142Z,48
2023-11-01T19:28:53.657Z,48
2023-11-01T19:34:24.231Z,48
2023-11-01T19:39:54.738Z,48
2023-11-01T19:45:25.212Z,48
2023-11-01T19:50:55.813Z,48
2023-11-01T19:56:26.256Z,48
2023-11-01T20:07:27.486Z,48
2023-11-01T20:12:57.946Z,48
2023-11-01T20:18:27.452Z,48
2023-11-01T20:23:57.949Z,48
2023-11-01T20:29:28.369Z,48
2023-11-01T20:34:59.073Z,48
2023-11-01T20:40:29.443Z,48
2023-11-01T20:45:59.891Z,48
2023-11-01T20:51:30.528Z,47.5
2023-11-01T20:57:01.032Z,48
2023-11-01T21:02:30.522Z,48
2023-11-01T21:19:02.202Z,48
2023-11-01T21:24:32.638Z,47.5
2023-11-01T21:30:03.141Z,47.5
2023-11-01T21:35:37.080Z,47.5
2023-11-01T21:41:04.162Z,47.5
2023-11-01T21:46:34.765Z,47.5
2023-11-01T21:52:05.222Z,47.5
2023-11-01T21:57:35.728Z,47.5
2023-11-01T22:03:06.498Z,47.5
2023-11-01T22:08:36.844Z,47.5
2023-11-01T22:19:38.668Z,47.5
2023-11-01T22:25:08.427Z,47.5
2023-11-01T22:30:38.990Z,47.5
2023-11-01T22:36:09.604Z,47.5
2023-11-01T22:41:40.097Z,47.5
2023-11-01T22:47:09.604Z,47.5
2023-11-01T22:52:40.038Z,47.5
2023-11-01T22:58:10.710Z,47.5
2023-11-01T23:03:41.222Z,47.5
2023-11-01T23:09:11.753Z,47.5
2023-11-01T23:14:41.213Z,47.5
2023-11-01T23:20:11.663Z,47.5
2023-11-01T23:31:12.764Z,47.5
2023-11-01T23:42:13.846Z,47.5
2023-11-01T23:47:44.368Z,47.5
2023-11-01T23:53:14.917Z,47.5
2023-11-01T23:58:45.505Z,47.5
